Time;durP1;ratioP1;P1;durP2;ratioP2;P2;SDS_P1;SDS_P2;PMS_P1;PMS_P2;Temp;Humidity;BMP_temperature;BMP_pressure;BME280_temperature;BME280_humidity;BME280_pressure;Samples;Min_cycle;Max_cycle;Signal;HPM_P1;HPM_P2
2022/09/27 00:01:14;;;;;;;1999.90;999.90;;;13.40;99.90;;;;;;4989062;28;20038;-81
2022/09/27 00:03:40;;;;;;;1999.90;999.90;;;13.40;99.90;;;;;;4974145;28;20037;-81
2022/09/27 00:06:19;;;;;;;1999.90;999.90;;;13.30;99.90;;;;;;4974108;28;20078;-81
2022/09/27 00:08:45;;;;;;;1999.90;999.90;;;13.30;99.90;;;;;;4972543;28;20026;-81
2022/09/27 00:11:27;;;;;;;1999.90;999.90;;;13.20;99.90;;;;;;4973980;28;20490;-81
2022/09/27 00:13:54;;;;;;;1999.90;999.90;;;13.20;99.90;;;;;;4972727;28;20106;-82
2022/09/27 00:16:21;;;;;;;1999.90;999.90;;;13.10;99.90;;;;;;4975409;28;20035;-81
2022/09/27 00:18:47;;;;;;;1999.90;999.90;;;13.10;99.90;;;;;;4991642;28;20549;-81
2022/09/27 00:21:15;;;;;;;1999.90;999.90;;;13.00;99.90;;;;;;4993103;28;20034;-81
2022/09/27 00:23:40;;;;;;;1999.90;999.90;;;13.00;99.90;;;;;;4993152;28;20097;-81
2022/09/27 00:26:07;;;;;;;1999.90;999.90;;;12.90;99.90;;;;;;4991777;28;20125;-81
2022/09/27 00:28:33;;;;;;;1999.90;999.90;;;12.90;99.90;;;;;;4991792;28;20034;-81
2022/09/27 00:30:59;;;;;;;1999.90;999.90;;;12.90;99.90;;;;;;4993092;28;20080;-81
2022/09/27 00:33:26;;;;;;;1999.90;999.90;;;12.90;99.90;;;;;;4992891;28;20030;-81
2022/09/27 00:35:52;;;;;;;1999.90;999.90;;;12.90;99.90;;;;;;4993315;28;20038;-76
2022/09/27 00:38:18;;;;;;;1999.90;999.90;;;13.00;99.90;;;;;;4992883;28;20030;-81
2022/09/27 00:40:44;;;;;;;1999.90;999.90;;;13.00;99.90;;;;;;4991042;28;20031;-76
2022/09/27 00:43:22;;;;;;;1999.90;999.90;;;13.00;99.90;;;;;;4988952;28;20545;-81
2022/09/27 00:45:54;;;;;;;1999.90;999.90;;;13.10;99.90;;;;;;4973675;28;20027;-76
2022/09/27 00:48:26;;;;;;;1999.90;999.90;;;13.10;99.90;;;;;;4973350;28;20030;-81
2022/09/27 00:50:55;;;;;;;1999.90;999.90;;;13.10;99.90;;;;;;4972642;28;20027;-81
2022/09/27 00:53:50;;;;;;;1999.90;999.90;;;13.10;99.90;;;;;;4979965;28;20105;-81
2022/09/27 00:56:20;;;;;;;1999.90;999.90;;;13.10;99.90;;;;;;4979509;28;20497;-81
2022/09/27 00:59:00;;;;;;;1999.90;999.90;;;13.10;99.90;;;;;;4978815;28;20035;-76
2022/09/27 01:01:29;;;;;;;1999.90;999.90;;;13.10;99.90;;;;;;4995003;28;20109;-76
2022/09/27 01:04:09;;;;;;;1999.90;999.90;;;13.20;99.90;;;;;;4979928;28;20027;-81
2022/09/27 01:06:36;;;;;;;1999.90;999.90;;;13.20;99.90;;;;;;4978150;28;20051;-81
2022/09/27 01:09:06;;;;;;;1999.90;999.90;;;13.20;99.90;;;;;;4979582;28;20027;-81
2022/09/27 01:12:03;;;;;;;1999.90;999.90;;;13.20;99.90;;;;;;4979627;28;20019;-81
2022/09/27 01:14:40;;;;;;;1999.90;999.90;;;13.20;99.90;;;;;;4979582;28;20035;-81
2022/09/27 01:17:20;;;;;;;1999.90;999.90;;;13.20;99.90;;;;;;4987390;28;20034;-82
2022/09/27 01:20:20;;;;;;;1999.90;999.90;;;13.30;99.90;;;;;;4999218;28;20504;-81
2022/09/27 01:22:57;;;;;;;1999.90;999.90;;;13.20;99.90;;;;;;4999295;28;20022;-82
2022/09/27 01:25:29;;;;;;;1999.90;999.90;;;13.30;99.90;;;;;;4997755;28;20034;-76
2022/09/27 01:28:19;;;;;;;1999.90;999.90;;;13.30;99.90;;;;;;4999177;28;20022;-81
2022/09/27 01:31:08;;;;;;;1999.90;999.90;;;13.20;99.90;;;;;;4997255;28;20069;-81
2022/09/27 01:33:46;;;;;;;1999.90;999.90;;;13.20;99.90;;;;;;5007097;28;20038;-82
2022/09/27 01:36:27;;;;;;;1999.90;999.90;;;13.30;99.90;;;;;;4997734;28;20516;-81
2022/09/27 01:39:00;;;;;;;1999.90;999.90;;;13.20;99.90;;;;;;4992855;28;20097;-82
2022/09/27 01:41:51;;;;;;;1999.90;999.90;;;13.20;99.90;;;;;;4978851;28;20059;-81
2022/09/27 01:44:30;;;;;;;1999.90;999.90;;;13.30;99.90;;;;;;4985632;28;20039;-82
2022/09/27 01:47:02;;;;;;;1999.90;999.90;;;13.30;99.90;;;;;;4978064;28;20041;-81
2022/09/27 01:49:53;;;;;;;1999.90;999.90;;;13.30;99.90;;;;;;4979374;28;20023;-81
2022/09/27 01:52:24;;;;;;;1999.90;999.90;;;13.30;99.90;;;;;;4993745;28;20027;-76
2022/09/27 01:54:55;;;;;;;1999.90;999.90;;;13.30;99.90;;;;;;4979368;28;20475;-81
2022/09/27 01:57:25;;;;;;;1999.90;999.90;;;13.30;99.90;;;;;;4978136;28;20395;-81
2022/09/27 02:00:00;;;;;;;1999.90;999.90;;;13.30;99.90;;;;;;4979547;28;20027;-81
2022/09/27 02:02:29;;;;;;;1999.90;999.90;;;13.30;99.90;;;;;;4978709;28;20026;-81
2022/09/27 02:04:59;;;;;;;1999.90;999.90;;;13.30;99.90;;;;;;4975181;28;20482;-76
2022/09/27 02:07:36;;;;;;;1999.90;999.90;;;13.30;99.90;;;;;;4975286;28;20090;-81
2022/09/27 02:10:09;;;;;;;1999.90;999.90;;;13.30;99.90;;;;;;4976212;28;20109;-81
2022/09/27 02:12:38;;;;;;;;;;;13.30;99.90;;;;;;4976641;28;20019;-82
2022/09/27 02:15:13;;;;;;;1999.90;999.90;;;13.30;99.90;;;;;;4975992;28;19906;-81
2022/09/27 02:17:58;;;;;;;1999.90;999.90;;;13.40;99.90;;;;;;4988279;28;20466;-76
2022/09/27 02:20:34;;;;;;;1999.90;999.90;;;13.40;99.90;;;;;;4994946;28;20517;-82
2022/09/27 02:23:17;;;;;;;1999.90;999.90;;;13.30;99.90;;;;;;4994027;28;20117;-81
2022/09/27 02:26:12;;;;;;;1999.90;999.90;;;13.30;99.90;;;;;;4994114;28;20031;-76
2022/09/27 02:29:04;;;;;;;1999.90;999.90;;;13.30;99.90;;;;;;4994904;28;20023;-82
2022/09/27 02:31:30;;;;;;;1999.90;999.90;;;13.30;99.90;;;;;;4994152;28;20058;-81
2022/09/27 02:34:18;;;;;;;1999.90;999.90;;;13.30;99.90;;;;;;4994996;28;20081;-82
2022/09/27 02:36:44;;;;;;;1999.90;999.90;;;13.30;99.90;;;;;;4994944;28;20425;-77
2022/09/27 02:39:10;;;;;;;1999.90;999.90;;;13.30;99.90;;;;;;4994836;28;20064;-81
2022/09/27 02:41:35;;;;;;;1999.90;999.90;;;13.30;99.90;;;;;;4994696;28;20037;-82
2022/09/27 02:44:07;;;;;;;1999.90;999.90;;;13.30;99.90;;;;;;4984040;28;20426;-82
2022/09/27 02:47:12;;;;;;;1999.90;999.90;;;13.40;99.90;;;;;;4975427;28;20034;-81
2022/09/27 02:50:00;;;;;;;1999.90;999.90;;;13.30;99.90;;;;;;4975466;28;20026;-77
2022/09/27 02:52:53;;;;;;;1999.90;999.90;;;13.30;99.90;;;;;;4975308;28;20030;-81
2022/09/27 02:55:45;;;;;;;1999.90;999.90;;;13.30;99.90;;;;;;4975450;28;20038;-82
2022/09/27 02:58:37;;;;;;;1999.90;999.90;;;13.30;99.90;;;;;;4974581;28;20122;-76
2022/09/27 03:01:11;;;;;;;1999.90;999.90;;;13.30;99.90;;;;;;4975303;28;20034;-82
2022/09/27 03:04:08;;;;;;;1999.90;999.90;;;13.20;99.90;;;;;;4975204;28;20094;-81
2022/09/27 03:06:35;;;;;;;1999.90;999.90;;;13.30;99.90;;;;;;4974855;28;20105;-81
2022/09/27 03:09:00;;;;;;;1999.90;999.90;;;13.30;99.90;;;;;;4974980;28;20050;-76
2022/09/27 03:11:26;;;;;;;1999.90;999.90;;;13.30;99.90;;;;;;4975089;28;20087;-81
2022/09/27 03:13:55;;;;;;;1999.90;999.90;;;13.30;99.90;;;;;;4975226;28;20023;-82
2022/09/27 03:16:20;;;;;;;1999.90;999.90;;;13.30;99.90;;;;;;4976665;28;20037;-82
2022/09/27 03:18:46;;;;;;;1999.90;999.90;;;13.20;99.90;;;;;;4992735;28;20026;-81
2022/09/27 03:21:11;;;;;;;1999.90;999.90;;;13.20;99.90;;;;;;4992948;28;20478;-82
2022/09/27 03:23:37;;;;;;;1999.90;999.90;;;13.20;99.90;;;;;;4994264;28;20038;-77
2022/09/27 03:26:03;;;;;;;1999.90;999.90;;;13.20;99.90;;;;;;4994204;28;20481;-76
2022/09/27 03:28:28;;;;;;;1999.90;999.90;;;13.10;99.90;;;;;;4994123;28;20029;-76
2022/09/27 03:30:54;;;;;;;1999.90;999.90;;;13.00;99.90;;;;;;4994176;28;20054;-82
2022/09/27 03:33:20;;;;;;;1999.90;999.90;;;13.00;99.90;;;;;;4993774;28;20042;-81
2022/09/27 03:35:46;;;;;;;1999.90;999.90;;;12.90;99.90;;;;;;4994378;28;20572;-76
2022/09/27 03:38:12;;;;;;;1999.90;999.90;;;12.90;99.90;;;;;;4993701;28;20034;-76
2022/09/27 03:40:38;;;;;;;1999.90;999.90;;;12.80;99.90;;;;;;4974595;28;20447;-81
2022/09/27 03:43:03;;;;;;;1999.90;999.90;;;12.80;99.90;;;;;;4972131;28;20026;-81
2022/09/27 03:45:29;;;;;;;1999.90;999.90;;;12.70;99.90;;;;;;4973261;28;20498;-76
2022/09/27 03:47:55;;;;;;;1999.90;999.90;;;12.70;99.90;;;;;;4972984;28;20031;-76
2022/09/27 03:50:20;;;;;;;1999.90;999.90;;;12.60;99.90;;;;;;4972975;28;20034;-81
2022/09/27 03:52:46;;;;;;;1999.90;999.90;;;12.50;99.90;;;;;;4989285;28;20023;-81
2022/09/27 03:55:12;;;;;;;1999.90;999.90;;;12.50;99.90;;;;;;4974373;28;20027;-76
2022/09/27 03:57:39;;;;;;;1999.90;999.90;;;12.40;99.90;;;;;;4974438;28;20023;-81
2022/09/27 04:00:06;;;;;;;1999.90;999.90;;;12.40;99.90;;;;;;4974376;28;20015;-76
2022/09/27 04:02:31;;;;;;;1999.90;999.90;;;12.40;99.90;;;;;;4972591;28;20027;-76
2022/09/27 04:04:57;;;;;;;1999.90;999.90;;;12.40;99.90;;;;;;4988976;28;20096;-80
2022/09/27 04:07:23;;;;;;;1999.90;999.90;;;12.40;99.90;;;;;;4974065;28;20449;-81
2022/09/27 04:09:48;;;;;;;1999.90;999.90;;;12.40;99.90;;;;;;4972803;28;20041;-76
2022/09/27 04:12:14;;;;;;;1999.90;999.90;;;12.40;99.90;;;;;;4973849;28;20066;-81
2022/09/27 04:14:40;;;;;;;1999.90;999.90;;;12.30;99.90;;;;;;4988431;28;20034;-81
2022/09/27 04:17:06;;;;;;;1999.90;999.90;;;12.30;99.90;;;;;;4981413;28;20378;-81
2022/09/27 04:19:32;;;;;;;1999.90;999.90;;;12.30;99.90;;;;;;4993051;28;20026;-81
2022/09/27 04:21:57;;;;;;;1999.90;999.90;;;12.30;99.90;;;;;;4993094;28;20033;-81
2022/09/27 04:24:24;;;;;;;1999.90;999.90;;;12.30;99.90;;;;;;4993069;28;20034;-81
2022/09/27 04:26:50;;;;;;;1999.90;999.90;;;12.30;99.90;;;;;;4992907;28;20377;-76
2022/09/27 04:29:16;;;;;;;1999.90;999.90;;;12.30;99.90;;;;;;4993071;28;20026;-81
2022/09/27 04:31:43;;;;;;;1999.90;999.90;;;12.30;99.90;;;;;;4993218;28;20069;-81
2022/09/27 04:34:09;;;;;;;1999.90;999.90;;;12.30;99.90;;;;;;4992999;28;20065;-81
2022/09/27 04:36:35;;;;;;;1999.90;999.90;;;12.20;99.90;;;;;;4992919;28;20069;-81
2022/09/27 04:39:04;;;;;;;1999.90;999.90;;;12.20;99.90;;;;;;4986214;28;20041;-81
2022/09/27 04:41:30;;;;;;;1999.90;999.90;;;12.10;99.90;;;;;;4973756;28;20027;-81
2022/09/27 04:43:57;;;;;;;1999.90;999.90;;;12.10;99.90;;;;;;4972537;28;20486;-81
2022/09/27 04:46:23;;;;;;;1999.90;999.90;;;12.10;99.90;;;;;;4973341;28;20084;-81
2022/09/27 04:48:49;;;;;;;1999.90;999.90;;;12.10;99.90;;;;;;4973291;28;20019;-81
2022/09/27 04:51:16;;;;;;;1999.90;999.90;;;12.10;99.90;;;;;;4988453;28;20474;-81
2022/09/27 04:53:46;;;;;;;1999.90;999.90;;;12.10;99.90;;;;;;4988506;28;20022;-76
2022/09/27 04:56:13;;;;;;;1999.90;999.90;;;12.20;99.90;;;;;;4989540;28;20034;-76
2022/09/27 04:58:39;;;;;;;1999.90;999.90;;;12.20;99.90;;;;;;4971793;28;20031;-76
2022/09/27 05:01:06;;;;;;;1999.90;999.90;;;12.20;99.90;;;;;;4971573;28;20027;-81
2022/09/27 05:03:32;;;;;;;1999.90;999.90;;;12.20;99.90;;;;;;4973264;28;20113;-80
2022/09/27 05:05:59;;;;;;;1999.90;999.90;;;12.10;99.90;;;;;;4973144;28;20129;-76
2022/09/27 05:08:25;;;;;;;1999.90;999.90;;;12.10;99.90;;;;;;4973423;28;20055;-76
2022/09/27 05:10:50;;;;;;;1999.90;999.90;;;12.10;99.90;;;;;;4973313;28;20054;-81
2022/09/27 05:13:17;;;;;;;1999.90;999.90;;;12.10;99.90;;;;;;4972876;28;20613;-81
2022/09/27 05:15:43;;;;;;;1999.90;999.90;;;12.10;99.90;;;;;;4973365;28;20161;-81
2022/09/27 05:18:09;;;;;;;1999.90;999.90;;;12.10;99.90;;;;;;4988034;28;20117;-76
2022/09/27 05:20:38;;;;;;;1999.90;999.90;;;12.10;99.90;;;;;;4992386;28;20177;-81
2022/09/27 05:23:04;;;;;;;1999.90;999.90;;;12.20;99.90;;;;;;4991108;28;20035;-80
2022/09/27 05:25:31;;;;;;;1999.90;999.90;;;12.10;99.90;;;;;;4992506;28;20038;-81
2022/09/27 05:27:58;;;;;;;1999.90;999.90;;;12.10;99.90;;;;;;4991717;28;20034;-81
2022/09/27 05:30:24;;;;;;;1999.90;999.90;;;12.20;99.90;;;;;;4991074;28;20041;-81
2022/09/27 05:32:52;;;;;;;1999.90;999.90;;;12.20;99.90;;;;;;4991960;28;20023;-76
2022/09/27 05:35:18;;;;;;;1999.90;999.90;;;12.40;99.90;;;;;;4988700;28;20026;-81
2022/09/27 05:37:54;;;;;;;1999.90;999.90;;;12.50;99.90;;;;;;4976941;28;20026;-81
2022/09/27 05:40:24;;;;;;;1999.90;999.90;;;12.50;99.90;;;;;;4993839;28;20037;-81
2022/09/27 05:42:53;;;;;;;1999.90;999.90;;;12.70;99.90;;;;;;4995858;28;20022;-80
2022/09/27 05:45:20;;;;;;;1999.90;999.90;;;12.80;99.90;;;;;;4985388;28;20032;-80
2022/09/27 05:47:57;;;;;;;1999.90;999.90;;;12.90;99.90;;;;;;4995644;28;20023;-76
2022/09/27 05:50:24;;;;;;;1999.90;999.90;;;13.00;99.90;;;;;;4987165;28;20026;-81
2022/09/27 05:52:50;;;;;;;1999.90;999.90;;;13.10;99.90;;;;;;4995522;28;20393;-81
2022/09/27 05:55:16;;;;;;;1999.90;999.90;;;13.20;99.90;;;;;;4995960;28;20030;-81
2022/09/27 05:57:52;;;;;;;1999.90;999.90;;;13.30;99.90;;;;;;4995476;28;20113;-76
2022/09/27 06:00:18;;;;;;;1999.90;999.90;;;13.40;99.90;;;;;;4994796;28;20019;-81
2022/09/27 06:02:43;;;;;;;1999.90;999.90;;;13.50;99.90;;;;;;4995139;28;20037;-81
2022/09/27 06:05:09;;;;;;;1999.90;999.90;;;13.60;99.90;;;;;;4993573;28;20022;-81
2022/09/27 06:07:36;;;;;;;1999.90;999.90;;;13.60;99.90;;;;;;4992704;28;20391;-81
2022/09/27 06:10:02;;;;;;;1999.90;999.90;;;13.70;99.90;;;;;;4976132;28;20154;-81
2022/09/27 06:12:27;;;;;;;1999.90;999.90;;;13.70;99.90;;;;;;4989364;28;20109;-81
2022/09/27 06:14:53;;;;;;;1999.90;999.90;;;13.80;99.90;;;;;;4993661;28;20362;-80
2022/09/27 06:17:19;;;;;;;1999.90;999.90;;;13.80;99.90;;;;;;4989775;28;20026;-79
2022/09/27 06:19:46;;;;;;;1999.90;999.90;;;13.90;99.90;;;;;;4990389;28;20018;-81
2022/09/27 06:22:12;;;;;;;1999.90;999.90;;;13.90;99.90;;;;;;4994563;28;20025;-80
2022/09/27 06:24:37;;;;;;;1999.90;999.90;;;14.00;99.90;;;;;;4993274;28;20023;-76
2022/09/27 06:27:12;;;;;;;1999.90;999.90;;;14.00;99.90;;;;;;4989011;28;20034;-81
2022/09/27 06:29:41;;;;;;;1999.90;999.90;;;14.10;99.90;;;;;;4993568;28;20026;-81
2022/09/27 06:32:08;;;;;;;1999.90;999.90;;;14.20;99.90;;;;;;4990969;28;20054;-81
2022/09/27 06:34:33;;;;;;;1999.90;999.90;;;14.20;99.90;;;;;;4992580;28;20528;-81
2022/09/27 06:36:59;;;;;;;1999.90;999.90;;;14.20;99.90;;;;;;4989590;28;20034;-76
2022/09/27 06:39:24;;;;;;;1999.90;999.90;;;14.20;99.90;;;;;;4988281;28;20034;-76
2022/09/27 06:41:56;;;;;;;1999.90;999.90;;;14.20;99.90;;;;;;4993693;28;20120;-80
2022/09/27 06:44:23;;;;;;;1999.90;999.90;;;14.20;99.90;;;;;;4991770;28;20422;-81
2022/09/27 06:46:50;;;;;;;1999.90;999.90;;;14.20;99.90;;;;;;4988916;28;20030;-80
2022/09/27 06:49:15;;;;;;;1999.90;999.90;;;14.30;99.90;;;;;;4981615;28;20019;-80
2022/09/27 06:51:41;;;;;;;1999.90;999.90;;;14.20;99.90;;;;;;4989254;28;20457;-76
2022/09/27 06:54:07;;;;;;;1999.90;999.90;;;14.20;99.90;;;;;;4988306;28;20034;-80
2022/09/27 06:56:33;;;;;;;1999.90;999.90;;;14.20;99.90;;;;;;4991638;28;20034;-81
2022/09/27 07:01:44;;;;;;;1999.90;999.90;;;14.20;99.90;;;;;;4984248;28;20093;-80
2022/09/27 07:04:13;;;;;;;1999.90;999.90;;;14.10;99.90;;;;;;4989129;28;20448;-76
2022/09/27 07:06:38;;;;;;;1999.90;999.90;;;14.10;99.90;;;;;;4983135;28;20061;-76
2022/09/27 07:09:05;;;;;;;1999.90;999.90;;;14.10;99.90;;;;;;4990752;28;20022;-80
2022/09/27 07:11:35;;;;;;;1999.90;999.90;;;14.20;99.90;;;;;;4984339;28;20212;-80
2022/09/27 07:14:02;;;;;;;1999.90;999.90;;;14.30;99.90;;;;;;4991224;28;20117;-80
2022/09/27 07:16:30;;;;;;;1999.90;999.90;;;14.40;99.90;;;;;;4988293;28;20019;-76
2022/09/27 07:18:56;;;;;;;1999.90;999.90;;;14.50;99.90;;;;;;4988106;28;20033;-76
2022/09/27 07:21:22;;;;;;;1999.90;999.90;;;14.60;99.90;;;;;;4991838;28;20023;-80
2022/09/27 07:23:48;;;;;;;1999.90;999.90;;;14.70;99.90;;;;;;4989926;28;20035;-80
2022/09/27 07:26:14;;;;;;;1999.90;999.90;;;14.80;99.90;;;;;;4991960;28;20049;-80
2022/09/27 07:28:40;;;;;;;1999.90;999.90;;;14.90;99.90;;;;;;4991526;28;20026;-79
2022/09/27 07:31:07;;;;;;;1999.90;999.90;;;15.10;99.90;;;;;;4985128;28;20382;-81
2022/09/27 07:33:34;;;;;;;1999.90;999.90;;;15.20;99.90;;;;;;4986886;28;20471;-81
2022/09/27 07:36:05;;;;;;;1999.90;999.90;;;15.30;99.90;;;;;;4979763;28;20355;-76
2022/09/27 07:38:31;;;;;;;1999.90;999.90;;;15.40;99.90;;;;;;4985823;28;20057;-81
2022/09/27 07:40:58;;;;;;;1999.90;999.90;;;15.50;99.90;;;;;;4991326;28;20038;-80
2022/09/27 07:43:23;;;;;;;1999.90;999.90;;;15.60;99.90;;;;;;4990698;28;20039;-76
2022/09/27 07:45:49;;;;;;;1999.90;999.90;;;15.60;99.90;;;;;;4982461;28;20375;-80
2022/09/27 07:48:15;;;;;;;1999.90;999.90;;;15.70;99.90;;;;;;4987119;28;20081;-80
2022/09/27 07:50:42;;;;;;;1999.90;999.90;;;15.70;99.90;;;;;;4991904;28;20022;-81
2022/09/27 07:53:11;;;;;;;1999.90;999.90;;;15.80;99.90;;;;;;4989947;28;20556;-80
2022/09/27 07:55:37;;;;;;;1999.90;999.90;;;15.80;99.90;;;;;;4991287;28;20026;-76
2022/09/27 07:58:08;;;;;;;1999.90;999.90;;;15.80;99.90;;;;;;4986778;28;20512;-81
2022/09/27 08:00:35;;;;;;;1999.90;999.90;;;15.80;99.90;;;;;;4989799;28;20461;-81
2022/09/27 08:03:06;;;;;;;1999.90;999.90;;;15.80;99.90;;;;;;4990534;28;20026;-81
2022/09/27 08:05:33;;;;;;;1999.90;999.90;;;15.80;99.90;;;;;;4990572;28;20042;-81
2022/09/27 08:07:59;;;;;;;1999.90;999.90;;;15.80;99.90;;;;;;4988255;28;20453;-76
2022/09/27 08:10:30;;;;;;;1999.90;999.90;;;15.70;99.90;;;;;;4982125;28;20022;-76
2022/09/27 08:12:56;;;;;;;1999.90;999.90;;;15.70;99.90;;;;;;4985231;28;20026;-80
2022/09/27 08:15:22;;;;;;;1999.90;999.90;;;15.80;99.90;;;;;;4983239;28;20027;-81
2022/09/27 08:17:49;;;;;;;1999.90;999.90;;;15.80;99.90;;;;;;4982152;28;20030;-80
2022/09/27 08:20:15;;;;;;;1999.90;999.90;;;15.80;99.90;;;;;;4982962;28;20105;-81
2022/09/27 08:22:42;;;;;;;1999.90;999.90;;;15.90;99.90;;;;;;4986753;28;20105;-76
2022/09/27 08:25:08;;;;;;;1999.90;999.90;;;15.90;99.90;;;;;;4983373;28;20023;-81
2022/09/27 08:27:34;;;;;;;1999.90;999.90;;;16.00;99.90;;;;;;4984206;28;20080;-81
2022/09/27 08:29:59;;;;;;;1999.90;999.90;;;15.90;99.90;;;;;;4979092;28;20506;-82
2022/09/27 08:32:27;;;;;;;1999.90;999.90;;;15.90;99.90;;;;;;4988575;28;20032;-76
2022/09/27 08:34:53;;;;;;;1999.90;999.90;;;15.90;99.90;;;;;;4989317;28;20409;-80
2022/09/27 08:37:19;;;;;;;1999.90;999.90;;;16.00;99.90;;;;;;4987942;28;20117;-76
2022/09/27 08:39:45;;;;;;;1999.90;999.90;;;16.10;99.90;;;;;;4989031;28;20072;-81
2022/09/27 08:42:45;;;;;;;1999.90;999.90;;;16.20;99.90;;;;;;4979915;28;20058;-81
2022/09/27 08:45:19;;;;;;;1999.90;999.90;;;16.30;99.90;;;;;;4984444;28;20070;-81
2022/09/27 08:47:51;;;;;;;1999.90;999.90;;;16.40;99.90;;;;;;4990924;28;20478;-76
2022/09/27 08:50:29;;;;;;;1999.90;999.90;;;16.50;99.90;;;;;;4990307;28;20032;-76
2022/09/27 08:53:13;;;;;;;1999.90;999.90;;;16.70;99.90;;;;;;4989553;28;20041;-81
2022/09/27 08:55:42;;;;;;;1999.90;999.90;;;16.80;99.90;;;;;;4990416;28;20121;-82
2022/09/27 08:58:27;;;;;;;1999.90;999.90;;;16.60;99.90;;;;;;4989475;28;20113;-82
2022/09/27 09:00:57;;;;;;;1999.90;999.90;;;16.50;99.90;;;;;;4984626;28;20490;-81
2022/09/27 09:03:26;;;;;;;1999.90;999.90;;;16.40;99.90;;;;;;4982600;28;20033;-76
2022/09/27 09:06:10;;;;;;;1999.90;999.90;;;16.40;99.90;;;;;;4985456;28;20049;-76
2022/09/27 09:08:39;;;;;;;1999.90;999.90;;;16.50;99.90;;;;;;4974788;28;20114;-82
2022/09/27 09:14:35;;;;;;;1999.90;999.90;;;17.00;99.90;;;;;;4984949;28;20511;-76
2022/09/27 09:17:23;;;;;;;1999.90;999.90;;;18.10;99.90;;;;;;4989337;28;20039;-76
2022/09/27 09:20:11;;;;;;;1999.90;999.90;;;20.40;99.90;;;;;;4994443;28;20018;-81
2022/09/27 09:22:42;;;;;;;1999.90;999.90;;;19.80;99.10;;;;;;4986307;28;20528;-80
2022/09/27 09:25:22;;;;;;;1999.90;999.90;;;19.10;99.90;;;;;;4988501;28;20085;-80
2022/09/27 09:28:03;;;;;;;1999.90;999.90;;;18.40;99.90;;;;;;4994061;28;20073;-76
2022/09/27 09:30:45;;;;;;;1999.90;999.90;;;18.00;99.90;;;;;;4993095;28;20039;-76
2022/09/27 09:33:21;;;;;;;1999.90;999.90;;;17.70;99.90;;;;;;4992766;28;20049;-80
2022/09/27 09:35:53;;;;;;;1999.90;999.90;;;17.60;99.90;;;;;;4979675;28;20045;-80
2022/09/27 09:38:33;;;;;;;1999.90;999.90;;;17.80;99.90;;;;;;4986315;28;20482;-80
2022/09/27 09:41:16;;;;;;;1999.90;999.90;;;17.70;99.90;;;;;;4989674;28;20030;-77
2022/09/27 09:43:51;;;;;;;1999.90;999.90;;;17.50;99.90;;;;;;4989930;28;20034;-79
2022/09/27 09:46:34;;;;;;;1999.90;999.90;;;17.30;99.90;;;;;;4986544;28;20117;-79
2022/09/27 09:49:06;;;;;;;1999.90;999.90;;;17.10;99.90;;;;;;4989081;28;20463;-77
2022/09/27 09:51:38;;;;;;;1999.90;999.90;;;17.10;99.90;;;;;;4988748;28;20096;-80
2022/09/27 09:54:14;;;;;;;1999.90;999.90;;;16.90;99.90;;;;;;4989374;28;20030;-77
2022/09/27 09:56:47;;;;;;;1999.90;999.90;;;16.90;99.90;;;;;;4991752;28;20030;-81
2022/09/27 09:59:27;;;;;;;1999.90;999.90;;;16.80;99.90;;;;;;4991694;28;20038;-81
2022/09/27 10:01:57;;;;;;;1999.90;999.90;;;16.70;99.90;;;;;;4985874;28;20085;-80
2022/09/27 10:04:26;;;;;;;1999.90;999.90;;;16.70;99.90;;;;;;4986856;28;20034;-81
2022/09/27 10:06:53;;;;;;;1999.90;999.90;;;16.80;99.90;;;;;;4989351;28;20060;-77
2022/09/27 10:09:27;;;;;;;1999.90;999.90;;;16.90;99.90;;;;;;4992392;28;20034;-80
2022/09/27 10:11:53;;;;;;;1999.90;999.90;;;17.10;99.90;;;;;;4991598;28;20555;-80
2022/09/27 10:14:21;;;;;;;1999.90;999.90;;;17.30;99.90;;;;;;4992504;28;20023;-77
2022/09/27 10:16:58;;;;;;;1999.90;999.90;;;17.60;99.90;;;;;;4990820;28;20034;-82
2022/09/27 10:19:29;;;;;;;1999.90;999.90;;;18.10;99.90;;;;;;4989774;28;20433;-81
2022/09/27 10:22:25;;;;;;;1999.90;999.90;;;18.20;99.90;;;;;;4991110;28;20029;-78
2022/09/27 10:25:02;;;;;;;1999.90;999.90;;;18.30;99.90;;;;;;4997255;28;20125;-80
2022/09/27 10:27:42;;;;;;;1999.90;999.90;;;18.30;99.90;;;;;;4991172;28;20371;-83
2022/09/27 10:30:27;;;;;;;1999.90;999.90;;;18.60;99.90;;;;;;4992704;28;20092;-82
2022/09/27 10:32:58;;;;;;;1999.90;999.90;;;19.00;99.90;;;;;;4987465;28;20352;-79
2022/09/27 10:35:35;;;;;;;1999.90;999.90;;;19.30;99.90;;;;;;4992313;28;20038;-82
2022/09/27 10:38:20;;;;;;;1999.90;999.90;;;19.10;99.90;;;;;;4981157;28;20552;-80
2022/09/27 10:40:48;;;;;;;1999.90;999.90;;;19.00;99.90;;;;;;4990739;28;20582;-81
2022/09/27 10:43:28;;;;;;;1999.90;999.90;;;18.90;99.90;;;;;;4988438;28;20030;-83
2022/09/27 10:46:24;;;;;;;1999.90;999.90;;;18.40;99.90;;;;;;4988455;28;20057;-82
2022/09/27 10:49:30;;;;;;;1999.90;999.90;;;18.30;99.90;;;;;;4987371;28;20509;-83
2022/09/27 10:52:06;;;;;;;1999.90;999.90;;;18.40;99.90;;;;;;4992546;28;20035;-82
2022/09/27 10:54:35;;;;;;;1999.90;999.90;;;18.30;99.90;;;;;;4986793;28;20101;-77
2022/09/27 10:57:04;;;;;;;1999.90;999.90;;;18.40;99.90;;;;;;4986291;28;20092;-78
2022/09/27 10:59:34;;;;;;;1999.90;999.90;;;18.30;99.90;;;;;;4982601;28;20117;-77
2022/09/27 11:02:00;;;;;;;1999.90;999.90;;;18.20;99.90;;;;;;4985524;28;20031;-82
2022/09/27 11:04:33;;;;;;;1999.90;999.90;;;18.10;99.90;;;;;;4985744;28;20029;-78
2022/09/27 11:07:14;;;;;;;1999.90;999.90;;;18.40;99.90;;;;;;4986765;28;20133;-82
2022/09/27 11:09:53;;;;;;;1999.90;999.90;;;18.80;99.70;;;;;;4991910;28;20058;-81
2022/09/27 11:12:21;;;;;;;1999.90;999.90;;;18.80;99.40;;;;;;4988286;28;20033;-82
2022/09/27 11:15:14;;;;;;;1999.90;999.90;;;18.90;99.20;;;;;;4990031;28;20379;-83
2022/09/27 11:17:53;;;;;;;1999.90;999.90;;;18.80;99.60;;;;;;4988695;28;20454;-78
2022/09/27 11:20:31;;;;;;;1999.90;999.90;;;18.80;99.90;;;;;;4985449;28;20093;-83
2022/09/27 11:23:13;;;;;;;1999.90;999.90;;;18.80;98.20;;;;;;4988802;28;20034;-78
2022/09/27 11:25:57;;;;;;;1999.90;999.90;;;18.90;98.80;;;;;;4989040;28;20034;-83
2022/09/27 11:29:02;;;;;;;1999.90;999.90;;;19.20;98.30;;;;;;4987674;28;20037;-84
2022/09/27 11:31:46;;;;;;;1999.90;999.90;;;19.50;98.50;;;;;;4989318;28;20465;-84
2022/09/27 11:34:42;;;;;;;1999.90;999.90;;;19.70;98.00;;;;;;4983872;28;20026;-84
2022/09/27 11:37:32;;;;;;;1999.90;999.90;;;19.80;98.00;;;;;;4980856;28;20506;-79
2022/09/27 11:40:30;;;;;;;1999.90;999.90;;;19.70;98.40;;;;;;4990611;28;20117;-85
2022/09/27 11:43:21;;;;;;;1999.90;999.90;;;19.70;98.20;;;;;;4986795;28;20141;-83
2022/09/27 11:45:54;;;;;;;1999.90;999.90;;;19.50;99.10;;;;;;4990409;28;20022;-83
2022/09/27 11:48:38;;;;;;;;;;;19.10;99.50;;;;;;4989453;28;20414;-84
2022/09/27 11:51:39;;;;;;;1999.90;999.90;;;18.90;99.10;;;;;;4982381;28;19936;-77
2022/09/27 11:54:27;;;;;;;1999.90;999.90;;;18.70;99.60;;;;;;4995009;28;20042;-84
2022/09/27 11:57:22;;;;;;;1999.90;999.90;;;18.90;99.80;;;;;;4986018;28;20034;-82
2022/09/27 12:00:11;;;;;;;1999.90;999.90;;;19.00;99.80;;;;;;4981629;28;20042;-82
2022/09/27 12:03:14;;;;;;;1999.90;999.90;;;18.80;99.90;;;;;;4989649;28;20085;-83
2022/09/27 12:06:00;;;;;;;1999.90;999.90;;;19.00;99.90;;;;;;4987138;28;20387;-80
2022/09/27 12:08:51;;;;;;;1999.90;999.90;;;19.10;99.90;;;;;;4988819;28;20081;-82
2022/09/27 12:11:32;;;;;;;1999.90;999.90;;;18.70;99.90;;;;;;4981710;28;20046;-82
2022/09/27 12:14:13;;;;;;;1999.90;999.90;;;18.60;99.90;;;;;;4989962;28;20084;-79
2022/09/27 12:16:41;;;;;;;1999.90;999.90;;;18.70;99.90;;;;;;4987432;28;20030;-79
2022/09/27 12:19:18;;;;;;;1999.90;999.90;;;18.50;99.90;;;;;;4987803;28;20129;-80
2022/09/27 12:21:44;;;;;;;1999.90;999.90;;;18.60;99.90;;;;;;4986615;28;20030;-80
2022/09/27 12:24:19;;;;;;;1999.90;999.90;;;18.60;99.90;;;;;;4989137;28;20030;-81
2022/09/27 12:26:48;;;;;;;1999.90;999.90;;;18.50;99.90;;;;;;4989376;28;20380;-78
2022/09/27 12:29:33;;;;;;;1999.90;999.90;;;18.10;99.90;;;;;;4988707;28;20030;-81
2022/09/27 12:32:23;;;;;;;1999.90;999.90;;;17.80;99.90;;;;;;4990166;28;20101;-78
2022/09/27 12:35:10;;;;;;;1999.90;999.90;;;17.70;99.90;;;;;;4990513;28;20026;-78